Time;durP1;ratioP1;P1;durP2;ratioP2;P2;SDS_P1;SDS_P2;PMS_P1;PMS_P2;Temp;Humidity;BMP_temperature;BMP_pressure;BME280_temperature;BME280_humidity;BME280_pressure;Samples;Min_cycle;Max_cycle;Signal;HPM_P1;HPM_P2
2022/11/04 00:01:57;;;;;;;3.40;3.10;;;;;;;9.05;100.00;100005.44;4998619;28;20030;-85
2022/11/04 00:04:25;;;;;;;2.97;2.60;;;;;;;8.89;100.00;100023.84;5000158;28;20041;-85
2022/11/04 00:06:51;;;;;;;2.53;2.33;;;;;;;8.78;100.00;100017.31;4999894;28;20043;-88
2022/11/04 00:09:19;;;;;;;4.03;2.30;;;;;;;8.74;100.00;100021.50;4999945;28;20048;-86
2022/11/04 00:17:47;;;;;;;3.33;2.00;;;;;;;8.51;100.00;100016.66;4999710;28;20076;-85
2022/11/04 00:28:44;;;;;;;2.03;1.40;;;;;;;8.38;100.00;100039.16;4999598;28;20053;-86
2022/11/04 00:34:00;;;;;;;2.10;1.10;;;;;;;8.38;100.00;100039.16;5000115;28;20071;-85
2022/11/04 00:36:26;;;;;;;1.97;1.40;;;;;;;8.34;100.00;100027.16;5018625;28;20052;-84
2022/11/04 00:38:52;;;;;;;3.80;1.60;;;;;;;8.32;100.00;100036.50;5019079;28;20034;-85
2022/11/04 00:41:26;;;;;;;1.40;1.30;;;;;;;8.27;100.00;100032.59;5034129;28;20508;-85
2022/11/04 00:43:57;;;;;;;1.98;1.30;;;;;;;8.24;100.00;100043.81;5019173;28;20036;-86
2022/11/04 00:46:22;;;;;;;4.37;1.40;;;;;;;8.21;100.00;100046.94;5017861;28;20042;-87
2022/11/04 00:48:48;;;;;;;1.77;1.67;;;;;;;8.17;100.00;100036.78;5018964;28;20032;-85
2022/11/04 00:51:13;;;;;;;3.03;2.77;;;;;;;8.18;100.00;100047.38;5018031;28;20584;-87
2022/11/04 00:53:39;;;;;;;4.97;4.00;;;;;;;8.21;100.00;100048.81;5019178;28;20057;-87
2022/11/04 00:56:04;;;;;;;8.20;7.03;;;;;;;8.30;100.00;100049.41;5018615;28;20508;-88
2022/11/04 00:58:30;;;;;;;9.37;7.53;;;;;;;8.32;100.00;100050.81;5020309;28;20030;-86
2022/11/04 01:00:55;;;;;;;13.10;10.17;;;;;;;8.42;100.00;100044.97;5017911;28;20041;-89
2022/11/04 01:03:20;;;;;;;15.83;12.43;;;;;;;8.46;100.00;100046.22;5019691;28;20041;-87
2022/11/04 01:05:46;;;;;;;15.50;13.17;;;;;;;8.53;100.00;100046.19;5032547;28;20050;-88
2022/11/04 01:08:11;;;;;;;16.83;13.27;;;;;;;8.59;100.00;100042.59;5033880;28;20037;-88
2022/11/04 01:10:43;;;;;;;16.97;14.03;;;;;;;8.67;100.00;100052.31;5020211;28;20095;-86
2022/11/04 01:13:09;;;;;;;17.90;14.93;;;;;;;8.71;100.00;100057.03;5018583;28;20701;-89
2022/11/04 01:15:35;;;;;;;18.77;15.53;;;;;;;8.74;100.00;100056.63;5018231;28;20152;-86
2022/11/04 01:18:01;;;;;;;19.50;17.40;;;;;;;8.82;100.00;100055.50;5018295;28;20072;-87
2022/11/04 01:20:26;;;;;;;21.47;16.93;;;;;;;8.86;100.00;100054.03;5019083;28;20034;-90
2022/11/04 01:22:51;;;;;;;20.83;18.53;;;;;;;8.83;100.00;100057.16;5019411;28;20075;-88
2022/11/04 01:25:17;;;;;;;19.87;17.50;;;;;;;8.86;100.00;100045.91;5019182;28;20073;-87
2022/11/04 01:27:42;;;;;;;20.50;15.90;;;;;;;8.92;100.00;100055.84;5018973;28;20072;-88
2022/11/04 01:30:09;;;;;;;19.77;15.83;;;;;;;8.91;100.00;100070.41;5021690;28;20579;-90
2022/11/04 01:32:34;;;;;;;18.03;15.50;;;;;;;8.94;100.00;100075.34;5037603;28;20083;-87
2022/11/04 01:34:59;;;;;;;17.87;14.67;;;;;;;9.01;100.00;100072.59;5022139;28;20069;-87
2022/11/04 01:37:25;;;;;;;17.20;14.57;;;;;;;8.95;100.00;100082.44;5037424;28;20048;-89
2022/11/04 01:39:50;;;;;;;17.63;15.20;;;;;;;8.94;100.00;100069.94;5036911;28;20176;-89
2022/11/04 01:42:20;;;;;;;18.03;14.93;;;;;;;8.90;100.00;100079.56;5022136;28;20779;-87
2022/11/04 01:44:58;;;;;;;17.97;15.53;;;;;;;8.90;100.00;100068.75;5023341;28;20033;-91
2022/11/04 01:47:38;;;;;;;21.07;15.20;;;;;;;8.92;100.00;100072.06;5022601;28;20563;-89
2022/11/04 01:50:21;;;;;;;17.40;14.67;;;;;;;8.90;100.00;100068.75;5021413;28;20507;-86
2022/11/04 01:53:05;;;;;;;17.50;13.83;;;;;;;8.97;100.00;100071.41;5022741;28;20033;-86
2022/11/04 01:55:33;;;;;;;17.40;13.93;;;;;;;8.89;100.00;100058.97;5021364;28;20191;-86
2022/11/04 01:58:04;;;;;;;19.83;13.97;;;;;;;8.86;100.00;100070.22;5003849;28;20029;-86
2022/11/04 02:00:30;;;;;;;16.50;13.10;;;;;;;8.82;100.00;100069.00;5021849;28;20033;-88
2022/11/04 02:03:04;;;;;;;19.17;13.73;;;;;;;8.78;100.00;100081.31;5022661;28;20044;-89
2022/11/04 02:05:30;;;;;;;;;;;;;;;8.85;100.00;100083.97;5022544;28;20038;-89
2022/11/04 02:08:00;;;;;;;18.37;13.00;;;;;;;8.66;100.00;100091.97;5036667;28;19924;-89
2022/11/04 02:10:27;;;;;;;15.53;12.03;;;;;;;8.63;100.00;100091.59;5021157;28;20033;-88
2022/11/04 02:12:55;;;;;;;16.23;10.73;;;;;;;8.64;100.00;100095.97;5036544;28;20128;-86
2022/11/04 02:15:44;;;;;;;18.73;10.60;;;;;;;8.61;100.00;100087.22;5022141;28;20029;-86
2022/11/04 02:18:25;;;;;;;16.17;10.70;;;;;;;8.52;100.00;100091.22;5021601;28;20042;-87
2022/11/04 02:21:33;;;;;;;16.10;9.80;;;;;;;8.63;100.00;100099.69;5020295;28;20036;-86
2022/11/04 02:24:04;;;;;;;13.50;9.20;;;;;;;8.47;100.00;100101.84;5022738;28;20116;-84
2022/11/04 02:27:07;;;;;;;15.70;9.10;;;;;;;8.46;100.00;100102.91;5022014;28;20128;-88
2022/11/04 02:29:53;;;;;;;14.47;8.60;;;;;;;8.42;100.00;100110.56;5022077;28;20056;-85
2022/11/04 02:32:54;;;;;;;13.53;8.37;;;;;;;8.44;100.00;100104.97;4991777;28;20041;-86
2022/11/04 02:35:31;;;;;;;12.47;7.63;;;;;;;8.34;100.00;100104.59;4991655;28;20118;-88
2022/11/04 02:38:23;;;;;;;14.10;7.30;;;;;;;8.34;100.00;100105.44;4991556;28;20045;-85
2022/11/04 02:40:57;;;;;;;12.50;7.23;;;;;;;8.32;100.00;100103.97;4989770;28;20414;-88
2022/11/04 02:43:32;;;;;;;12.52;6.85;;;;;;;8.30;100.00;100108.78;4991849;28;20037;-86
2022/11/04 02:46:15;;;;;;;13.13;7.07;;;;;;;8.24;100.00;100105.91;4991228;28;20040;-86
2022/11/04 02:48:59;;;;;;;12.70;6.50;;;;;;;8.21;100.00;100100.91;4991369;28;20062;-90
2022/11/04 02:51:30;;;;;;;12.17;6.37;;;;;;;8.19;100.00;100108.41;4991847;28;20390;-88
2022/11/04 02:54:02;;;;;;;11.90;6.00;;;;;;;8.25;100.00;100114.81;4991340;28;20422;-88
2022/11/04 02:56:30;;;;;;;10.93;5.50;;;;;;;8.22;100.00;100115.25;4991129;28;20041;-85
2022/11/04 02:59:03;;;;;;;10.80;5.60;;;;;;;8.22;100.00;100110.66;4991258;28;20042;-87
2022/11/04 03:01:35;;;;;;;9.80;5.88;;;;;;;8.17;100.00;100113.16;4977327;28;20038;-86
2022/11/04 03:04:07;;;;;;;10.77;5.37;;;;;;;8.12;100.00;100121.09;4991394;28;20030;-87
2022/11/04 03:06:34;;;;;;;10.73;5.00;;;;;;;8.15;100.00;100114.44;4991130;28;20030;-86
2022/11/04 03:09:01;;;;;;;11.63;5.50;;;;;;;8.09;100.00;100116.09;4990903;28;21517;-87
2022/11/04 03:11:27;;;;;;;9.63;5.40;;;;;;;8.06;100.00;100119.25;4991056;28;20081;-90
2022/11/04 03:14:27;;;;;;;12.20;4.77;;;;;;;8.08;100.00;100130.66;4990879;28;20552;-88
2022/11/04 03:16:58;;;;;;;7.80;4.60;;;;;;;7.97;100.00;100117.81;4991575;28;20045;-88
2022/11/04 03:19:53;;;;;;;10.43;5.23;;;;;;;7.99;100.00;100130.06;4991044;28;20057;-92
2022/11/04 03:22:21;;;;;;;9.35;4.35;;;;;;;7.94;100.00;100136.09;4991418;28;20026;-88
2022/11/04 03:24:48;;;;;;;12.00;5.00;;;;;;;7.92;100.00;100143.56;4976637;28;20386;-87
2022/11/04 03:27:37;;;;;;;9.50;4.67;;;;;;;7.87;100.00;100146.06;4990698;28;20457;-90
2022/11/04 03:30:08;;;;;;;9.27;4.57;;;;;;;7.83;100.00;100150.22;4995136;28;20056;-89
2022/11/04 03:33:03;;;;;;;8.90;4.43;;;;;;;7.82;100.00;100147.72;5020976;28;20029;-87
2022/11/04 03:35:29;;;;;;;8.60;4.50;;;;;;;7.74;100.00;100143.41;5034667;28;20034;-88
2022/11/04 03:37:56;;;;;;;10.30;4.27;;;;;;;7.71;100.00;100149.19;5020078;28;20030;-89
2022/11/04 03:40:21;;;;;;;9.50;4.37;;;;;;;7.69;100.00;100148.59;5017724;28;20489;-87
2022/11/04 03:42:56;;;;;;;10.50;4.60;;;;;;;7.73;100.00;100147.97;5034457;28;20045;-90
2022/11/04 03:45:22;;;;;;;9.10;3.97;;;;;;;7.77;100.00;100146.50;5020764;28;20148;-87
2022/11/04 03:47:48;;;;;;;9.00;4.00;;;;;;;7.83;100.00;100144.81;5019694;28;20505;-87
2022/11/04 03:50:31;;;;;;;12.73;4.30;;;;;;;7.80;100.00;100150.63;5001371;28;20037;-88
2022/11/04 03:52:58;;;;;;;9.53;4.20;;;;;;;7.76;100.00;100144.84;5019433;28;20029;-89
2022/11/04 03:55:33;;;;;;;13.07;5.30;;;;;;;7.74;100.00;100160.41;5019843;28;20079;-87
2022/11/04 03:58:32;;;;;;;10.43;4.70;;;;;;;7.74;100.00;100162.28;5019328;28;20033;-91
2022/11/04 04:01:16;;;;;;;11.10;5.30;;;;;;;7.66;100.00;100149.84;5019989;28;20037;-90
2022/11/04 04:03:52;;;;;;;12.30;5.13;;;;;;;7.58;100.00;100145.50;5020080;28;21357;-91
2022/11/04 04:06:24;;;;;;;13.63;5.17;;;;;;;7.67;100.00;100150.66;5020326;28;20116;-88
2022/11/04 04:08:54;;;;;;;13.03;6.10;;;;;;;7.56;100.00;100144.03;5019635;28;20028;-88
2022/11/04 04:11:31;;;;;;;14.23;6.27;;;;;;;7.55;100.00;100140.53;5020136;28;20552;-88
2022/11/04 04:14:11;;;;;;;15.10;6.20;;;;;;;7.50;100.00;100142.19;5019101;28;20098;-91
2022/11/04 04:16:42;;;;;;;19.23;7.50;;;;;;;7.51;100.00;100152.75;5020048;28;20111;-88
2022/11/04 04:19:12;;;;;;;17.13;7.30;;;;;;;7.49;100.00;100157.53;5018577;28;20053;-89
2022/11/04 04:21:46;;;;;;;15.03;5.87;;;;;;;7.44;100.00;100157.34;5019377;28;20044;-90
2022/11/04 04:29:45;;;;;;;10.52;4.40;;;;;;;7.45;100.00;100164.38;5019479;28;20045;-89
2022/11/04 04:32:12;;;;;;;13.37;6.27;;;;;;;7.48;100.00;100173.91;5034995;28;20060;-87
2022/11/04 04:34:38;;;;;;;14.40;5.43;;;;;;;7.48;100.00;100182.84;5034379;28;20041;-90
2022/11/04 04:37:24;;;;;;;15.80;5.80;;;;;;;7.46;100.00;100176.81;5018799;28;20508;-90
2022/11/04 04:45:39;;;;;;;14.27;6.10;;;;;;;7.46;100.00;100181.38;5019503;28;20057;-91
2022/11/04 04:48:08;;;;;;;18.60;7.43;;;;;;;7.43;100.00;100178.06;5018681;28;20120;-90
2022/11/04 04:50:38;;;;;;;17.20;7.60;;;;;;;7.47;100.00;100189.25;5001344;28;20060;-90
2022/11/04 04:53:03;;;;;;;17.10;7.93;;;;;;;7.41;100.00;100180.16;5018633;28;20061;-87
2022/11/04 04:55:30;;;;;;;17.50;8.60;;;;;;;7.45;100.00;100188.63;5020344;28;20037;-88
2022/11/04 04:57:56;;;;;;;15.97;8.13;;;;;;;7.41;100.00;100179.28;5033742;28;20041;-90
2022/11/04 05:00:29;;;;;;;21.57;9.23;;;;;;;7.42;100.00;100186.34;5019292;28;20041;-89
2022/11/04 05:02:54;;;;;;;20.53;9.80;;;;;;;7.41;100.00;100184.69;5018063;28;20033;-88
2022/11/04 05:05:20;;;;;;;20.90;9.77;;;;;;;7.43;100.00;100190.72;5021650;28;20037;-89
2022/11/04 05:07:45;;;;;;;22.17;9.40;;;;;;;7.35;100.00;100193.63;5022509;28;20048;-89
2022/11/04 05:10:13;;;;;;;20.67;10.30;;;;;;;7.30;100.00;100198.78;5023025;28;20042;-90
2022/11/04 05:15:24;;;;;;;17.13;9.55;;;;;;;7.22;100.00;100187.19;5023278;28;20157;-87
2022/11/04 05:18:08;;;;;;;20.13;10.10;;;;;;;7.21;100.00;100199.00;5021843;28;20800;-90
2022/11/04 05:20:37;;;;;;;17.35;8.60;;;;;;;7.21;100.00;100207.06;5038015;28;20088;-87
2022/11/04 05:23:02;;;;;;;18.27;8.53;;;;;;;7.20;100.00;100204.59;5022595;28;20052;-87
2022/11/04 05:25:27;;;;;;;18.77;8.77;;;;;;;7.18;100.00;100206.63;5023612;28;20033;-89
2022/11/04 05:27:53;;;;;;;21.00;8.73;;;;;;;7.24;100.00;100219.31;5037946;28;20116;-88
2022/11/04 05:30:18;;;;;;;15.60;7.80;;;;;;;7.23;100.00;100223.84;5021786;28;20144;-89
2022/11/04 05:32:43;;;;;;;17.40;7.87;;;;;;;7.21;100.00;100225.94;5022804;28;20136;-89
2022/11/04 05:35:09;;;;;;;18.50;8.07;;;;;;;7.16;100.00;100219.50;5023051;28;20049;-88
2022/11/04 05:37:34;;;;;;;16.67;7.73;;;;;;;7.20;100.00;100232.34;5019757;28;20124;-87
2022/11/04 05:40:00;;;;;;;15.13;6.90;;;;;;;7.23;100.00;100231.13;5020809;28;20038;-88
2022/11/04 05:42:25;;;;;;;17.33;7.60;;;;;;;7.19;100.00;100236.06;5021467;28;20029;-88
2022/11/04 05:44:50;;;;;;;20.27;7.73;;;;;;;7.13;100.00;100228.81;5022005;28;20084;-88
2022/11/04 05:47:16;;;;;;;14.80;7.63;;;;;;;7.14;100.00;100233.19;5022525;28;20117;-86
2022/11/04 05:49:41;;;;;;;19.43;8.93;;;;;;;7.12;100.00;100229.84;5020499;28;20041;-89
2022/11/04 05:52:06;;;;;;;21.70;9.13;;;;;;;7.16;100.00;100246.44;5020478;28;20045;-89
2022/11/04 05:54:32;;;;;;;21.47;9.23;;;;;;;7.17;100.00;100246.25;5021798;28;20493;-90
2022/11/04 05:56:57;;;;;;;17.87;8.30;;;;;;;7.20;100.00;100253.91;5021371;28;20196;-88
2022/11/04 05:59:22;;;;;;;16.40;8.57;;;;;;;7.21;100.00;100250.19;5019682;28;20037;-90
2022/11/04 06:01:49;;;;;;;19.67;8.53;;;;;;;7.22;100.00;100249.16;4987961;28;20151;-88
2022/11/04 06:04:17;;;;;;;20.57;9.27;;;;;;;7.21;100.00;100250.19;5020910;28;20394;-89
2022/11/04 06:06:43;;;;;;;19.10;9.57;;;;;;;7.23;100.00;100248.09;5020615;28;20029;-92
2022/11/04 06:09:08;;;;;;;23.20;9.80;;;;;;;7.26;100.00;100247.72;5021382;28;20025;-88
2022/11/04 06:11:34;;;;;;;24.53;10.87;;;;;;;7.27;100.00;100248.53;5021954;28;20048;-90
2022/11/04 06:13:59;;;;;;;23.47;10.93;;;;;;;7.30;100.00;100250.00;5021546;28;20413;-90
2022/11/04 06:16:25;;;;;;;22.90;11.37;;;;;;;7.31;100.00;100251.66;5021957;28;20354;-89
2022/11/04 06:18:52;;;;;;;24.10;11.63;;;;;;;7.33;100.00;100253.13;5021653;28;20489;-90
2022/11/04 06:21:21;;;;;;;23.37;10.13;;;;;;;7.35;100.00;100258.28;5021167;28;20469;-91
2022/11/04 06:23:47;;;;;;;19.97;9.40;;;;;;;7.37;100.00;100264.28;5021866;28;20048;-92
2022/11/04 06:26:14;;;;;;;18.90;8.67;;;;;;;7.37;100.00;100264.28;5021805;28;20045;-88
2022/11/04 06:28:39;;;;;;;17.40;7.47;;;;;;;7.41;100.00;100262.84;5020832;28;20057;-89
2022/11/04 06:31:07;;;;;;;17.63;7.00;;;;;;;7.44;100.00;100274.06;5036300;28;20080;-88
2022/11/04 06:33:32;;;;;;;16.20;6.60;;;;;;;7.47;100.00;100280.91;5000960;28;20037;-90
2022/11/04 06:35:59;;;;;;;15.47;7.23;;;;;;;7.51;100.00;100282.16;5021457;28;20392;-90
2022/11/04 06:38:24;;;;;;;16.20;6.33;;;;;;;7.50;100.00;100280.50;5021564;28;20029;-89
2022/11/04 06:40:50;;;;;;;18.90;7.03;;;;;;;7.51;100.00;100274.06;5020948;28;20480;-90
2022/11/04 06:43:15;;;;;;;18.33;7.03;;;;;;;7.54;100.00;100281.75;5019785;28;20444;-89
2022/11/04 06:45:40;;;;;;;15.10;6.10;;;;;;;7.55;100.00;100285.28;5035251;28;20048;-87
2022/11/04 06:48:06;;;;;;;15.87;6.17;;;;;;;7.55;100.00;100288.81;5036936;28;20508;-90
2022/11/04 06:50:31;;;;;;;12.47;6.03;;;;;;;7.57;100.00;100296.69;5022960;28;20456;-91
2022/11/04 06:52:57;;;;;;;17.33;6.73;;;;;;;7.59;100.00;100303.53;5022663;28;20037;-90
2022/11/04 06:55:22;;;;;;;16.87;6.57;;;;;;;7.53;100.00;100301.63;5023426;28;20025;-90
2022/11/04 06:57:48;;;;;;;15.27;7.07;;;;;;;7.50;100.00;100309.31;5023288;28;20041;-90
2022/11/04 07:00:13;;;;;;;12.97;6.20;;;;;;;7.52;100.00;100321.56;5021511;28;20037;-92
2022/11/04 07:03:16;;;;;;;15.07;6.33;;;;;;;7.57;100.00;100319.06;5014080;28;20032;-91
2022/11/04 07:05:41;;;;;;;17.40;6.60;;;;;;;7.53;100.00;100306.22;5010226;28;20038;-90
2022/11/04 07:08:07;;;;;;;13.03;6.13;;;;;;;7.58;100.00;100320.72;5040347;28;20083;-89
2022/11/04 07:10:32;;;;;;;14.43;6.27;;;;;;;7.57;100.00;100319.06;5023577;28;20106;-89
2022/11/04 07:12:58;;;;;;;14.97;6.10;;;;;;;7.65;100.00;100319.94;5005414;28;20037;-90
2022/11/04 07:15:23;;;;;;;17.40;6.47;;;;;;;7.68;100.00;100319.50;5023469;28;20505;-89
2022/11/04 07:17:48;;;;;;;17.23;6.80;;;;;;;7.75;100.00;100321.19;5021002;28;20098;-89
2022/11/04 07:20:14;;;;;;;16.83;6.37;;;;;;;7.80;100.00;100323.25;5021046;28;20033;-89
2022/11/04 07:22:39;;;;;;;17.70;7.03;;;;;;;7.80;100.00;100325.94;5036153;28;20044;-89
2022/11/04 07:25:05;;;;;;;19.83;8.20;;;;;;;7.85;100.00;100336.94;5019942;28;21951;-90
2022/11/04 07:27:30;;;;;;;18.83;8.80;;;;;;;7.87;100.00;100337.56;5019592;28;20037;-89
2022/11/04 07:29:56;;;;;;;23.40;9.10;;;;;;;7.94;100.00;100333.03;5034572;28;20110;-89
2022/11/04 07:32:22;;;;;;;17.43;6.60;;;;;;;7.96;100.00;100342.78;5019578;28;20550;-89
2022/11/04 07:35:03;;;;;;;15.57;6.20;;;;;;;8.03;100.00;100333.63;5036398;28;20037;-87
2022/11/04 07:37:28;;;;;;;16.30;6.83;;;;;;;8.06;100.00;100337.78;5020542;28;20041;-89
2022/11/04 07:39:54;;;;;;;18.43;7.20;;;;;;;8.09;100.00;100348.16;5020095;28;20036;-90
2022/11/04 07:42:19;;;;;;;15.63;6.60;;;;;;;8.09;100.00;100337.34;5020322;28;20142;-91
2022/11/04 07:44:45;;;;;;;18.13;6.10;;;;;;;8.10;100.00;100349.81;5022125;28;20037;-90
2022/11/04 07:47:11;;;;;;;17.17;6.53;;;;;;;8.15;100.00;100344.63;5019268;28;20029;-90
2022/11/04 07:49:36;;;;;;;15.97;6.67;;;;;;;8.19;100.00;100343.19;5021774;28;20184;-89
2022/11/04 07:52:02;;;;;;;17.53;6.30;;;;;;;8.23;100.00;100351.69;5022847;28;20079;-90
2022/11/04 07:54:27;;;;;;;15.03;5.90;;;;;;;8.17;100.00;100344.44;5021287;28;20485;-88
2022/11/04 07:56:53;;;;;;;12.63;5.90;;;;;;;8.23;100.00;100355.22;5036808;28;20037;-88
2022/11/04 07:59:18;;;;;;;16.37;6.13;;;;;;;8.27;100.00;100367.25;5036065;28;20037;-91
2022/11/04 08:01:43;;;;;;;13.80;5.80;;;;;;;8.35;100.00;100370.78;5002641;28;20099;-90
2022/11/04 08:04:10;;;;;;;13.70;6.00;;;;;;;8.51;100.00;100362.28;5021321;28;20065;-90
2022/11/04 08:06:35;;;;;;;16.37;6.63;;;;;;;8.75;100.00;100362.66;4999211;28;20040;-91
2022/11/04 08:09:01;;;;;;;16.07;6.50;;;;;;;8.80;100.00;100368.25;5020486;28;20037;-91
2022/11/04 08:11:27;;;;;;;12.47;6.33;;;;;;;8.81;100.00;100372.59;5020635;28;20041;-89
2022/11/04 08:13:53;;;;;;;14.83;6.13;;;;;;;8.86;100.00;100374.69;5018948;28;20383;-87
2022/11/04 08:16:20;;;;;;;15.47;6.23;;;;;;;8.88;100.00;100378.00;5020615;28;20045;-90
2022/11/04 08:19:20;;;;;;;12.93;5.40;;;;;;;8.99;100.00;100381.91;5018195;28;20037;-89
2022/11/04 08:21:45;;;;;;;13.10;5.90;;;;;;;9.02;100.00;100381.50;5019122;28;20075;-89
2022/11/04 08:24:10;;;;;;;15.40;6.57;;;;;;;9.00;100.00;100386.28;5019096;28;20041;-89
2022/11/04 08:26:36;;;;;;;17.67;6.60;;;;;;;9.02;100.00;100395.00;5018145;28;20124;-87
2022/11/04 08:29:05;;;;;;;14.97;6.30;;;;;;;8.95;100.00;100395.84;5019645;28;20049;-89
2022/11/04 08:32:07;;;;;;;19.30;7.90;;;;;;;9.04;100.00;100399.13;5019910;28;20064;-89
2022/11/04 08:34:33;;;;;;;15.83;7.63;;;;;;;8.97;100.00;100395.63;5019920;28;20032;-89
2022/11/04 08:36:59;;;;;;;16.23;7.23;;;;;;;9.00;100.00;100402.50;5018124;28;20036;-89
2022/11/04 08:39:24;;;;;;;17.23;7.90;;;;;;;9.05;100.00;100411.63;5019517;28;20088;-89
2022/11/04 08:41:52;;;;;;;16.97;7.20;;;;;;;9.00;100.00;100407.91;5019340;28;20041;-88
2022/11/04 08:44:18;;;;;;;15.13;7.27;;;;;;;9.12;100.00;100414.28;5034957;28;20078;-89
2022/11/04 08:46:44;;;;;;;15.87;6.93;;;;;;;9.17;100.00;100411.78;5020159;28;20068;-88
2022/11/04 08:49:10;;;;;;;18.13;7.17;;;;;;;9.23;100.00;100416.38;5020469;28;20178;-89
2022/11/04 08:51:38;;;;;;;14.03;7.23;;;;;;;9.35;100.00;100415.69;5019476;28;20132;-89
2022/11/04 08:54:04;;;;;;;16.23;6.47;;;;;;;9.59;100.00;100414.94;5017842;28;20033;-90
2022/11/04 08:56:33;;;;;;;16.70;6.77;;;;;;;9.92;100.00;100422.03;4996195;28;20037;-91
2022/11/04 08:59:00;;;;;;;13.93;6.10;;;;;;;10.45;100.00;100420.84;5018089;28;20481;-89
2022/11/04 09:01:27;;;;;;;13.53;5.87;;;;;;;10.54;100.00;100431.41;5033815;28;21086;-89
2022/11/04 09:03:52;;;;;;;11.93;5.57;;;;;;;10.52;100.00;100428.91;5019278;28;20052;-89
2022/11/04 09:06:27;;;;;;;12.47;4.93;;;;;;;10.47;100.00;100445.84;5018877;28;20401;-90
2022/11/04 09:08:55;;;;;;;13.32;4.35;;;;;;;10.78;100.00;100451.41;5019017;28;20115;-90
2022/11/04 09:11:22;;;;;;;15.43;4.50;;;;;;;10.93;99.78;100460.03;5020784;28;20172;-89
2022/11/04 09:13:47;;;;;;;10.80;4.40;;;;;;;11.03;100.00;100453.25;5019184;28;20059;-89
2022/11/04 09:16:14;;;;;;;13.87;4.90;;;;;;;10.98;99.20;100459.34;5018250;28;20042;-88
2022/11/04 09:18:39;;;;;;;11.50;4.70;;;;;;;11.45;99.38;100461.53;5000958;28;20068;-89
2022/11/04 09:21:06;;;;;;;10.07;3.80;;;;;;;11.48;96.16;100461.09;5018655;28;20416;-89
2022/11/04 09:23:31;;;;;;;12.93;4.03;;;;;;;11.63;95.27;100460.72;5019007;28;20549;-87
2022/11/04 09:26:02;;;;;;;9.93;3.90;;;;;;;11.71;93.84;100462.25;5019002;28;20071;-90
2022/11/04 09:28:27;;;;;;;10.30;3.80;;;;;;;11.62;94.05;100462.56;5018731;28;20227;-88
2022/11/04 09:30:52;;;;;;;11.13;4.00;;;;;;;11.59;95.50;100470.34;5018020;28;20053;-88
2022/11/04 09:33:18;;;;;;;11.77;4.27;;;;;;;11.50;95.40;100467.09;5019270;28;20387;-89
2022/11/04 09:35:52;;;;;;;11.57;4.00;;;;;;;11.59;95.30;100473.88;5033897;28;20049;-89
2022/11/04 09:38:17;;;;;;;;;;;;;;;11.90;93.38;100480.19;5020366;28;20069;-88
2022/11/04 09:40:43;;;;;;;10.00;4.10;;;;;;;11.39;94.51;100476.00;5018234;28;20127;-89
2022/11/04 09:43:23;;;;;;;12.70;3.90;;;;;;;11.37;96.17;100481.66;5019176;28;20219;-90
2022/11/04 09:45:48;;;;;;;12.53;4.40;;;;;;;11.34;96.73;100481.28;5019104;28;20045;-91
2022/11/04 09:48:30;;;;;;;12.80;4.47;;;;;;;11.35;98.26;100504.66;5019231;28;20037;-89
2022/11/04 09:50:59;;;;;;;15.13;4.57;;;;;;;11.02;96.27;100513.97;5012380;28;20318;-89
2022/11/04 09:53:44;;;;;;;13.93;4.87;;;;;;;10.99;98.33;100512.53;5023923;28;20041;-89
2022/11/04 09:56:19;;;;;;;13.43;4.77;;;;;;;11.04;98.66;100511.84;5022664;28;20050;-89
2022/11/04 09:58:45;;;;;;;11.30;4.53;;;;;;;10.94;98.12;100518.59;5022702;28;20039;-90
2022/11/04 10:01:16;;;;;;;12.33;4.50;;;;;;;10.91;97.50;100516.31;5022074;28;20036;-89
2022/11/04 10:04:19;;;;;;;13.87;4.60;;;;;;;10.82;98.73;100523.06;5021749;28;20034;-90
2022/11/04 10:07:20;;;;;;;14.37;5.20;;;;;;;10.84;99.00;100521.00;5038356;28;20126;-90
2022/11/04 10:10:06;;;;;;;13.60;5.47;;;;;;;10.79;99.36;100531.66;5022344;28;20025;-90
2022/11/04 10:13:00;;;;;;;12.53;5.30;;;;;;;10.84;99.20;100530.97;5021928;28;20037;-88
2022/11/04 10:15:28;;;;;;;14.47;5.93;;;;;;;10.55;99.13;100531.44;5021685;28;20029;-89
2022/11/04 10:18:22;;;;;;;11.63;6.03;;;;;;;10.64;100.00;100527.38;5019350;28;20492;-88
2022/11/04 10:21:01;;;;;;;13.87;6.30;;;;;;;10.57;100.00;100526.59;5023475;28;20190;-89
2022/11/04 10:23:37;;;;;;;14.50;5.63;;;;;;;10.69;100.00;100526.75;5022086;28;20092;-88
2022/11/04 10:26:19;;;;;;;14.60;6.10;;;;;;;10.55;100.00;100526.00;5038136;28;20124;-92
2022/11/04 10:29:00;;;;;;;16.53;6.37;;;;;;;10.69;100.00;100531.31;5023776;28;20091;-90
2022/11/04 10:31:25;;;;;;;13.90;6.30;;;;;;;10.78;100.00;100538.13;5021527;28;20304;-90
2022/11/04 10:33:55;;;;;;;15.70;5.83;;;;;;;10.76;99.59;100545.66;5021924;28;20064;-87
2022/11/04 10:36:23;;;;;;;13.40;5.80;;;;;;;10.72;99.95;100550.69;5022455;28;20083;-90
2022/11/04 10:38:54;;;;;;;11.47;6.03;;;;;;;10.67;100.00;100557.81;5035228;28;20045;-88
2022/11/04 10:41:32;;;;;;;16.80;6.67;;;;;;;10.75;99.83;100554.81;5004499;28;20055;-89
2022/11/04 10:44:05;;;;;;;13.33;6.87;;;;;;;10.86;98.87;100553.28;5022973;28;20033;-89
2022/11/04 10:46:53;;;;;;;14.67;7.30;;;;;;;10.86;98.82;100556.81;5021919;28;20033;-90
2022/11/04 10:49:40;;;;;;;16.47;6.80;;;;;;;11.09;98.78;100560.81;5050712;28;20025;-91
2022/11/04 10:52:07;;;;;;;17.93;7.83;;;;;;;11.10;98.33;100566.00;5029165;28;20025;-92
2022/11/04 10:54:45;;;;;;;16.70;7.50;;;;;;;11.09;95.49;100564.34;5023609;28;20488;-91
2022/11/04 10:57:15;;;;;;;16.80;7.63;;;;;;;11.23;97.58;100570.50;5023512;28;20034;-89
2022/11/04 10:59:58;;;;;;;17.70;7.53;;;;;;;11.30;97.95;100557.69;5020740;28;20037;-90
2022/11/04 11:02:36;;;;;;;16.00;7.30;;;;;;;11.30;96.14;100557.69;5020844;28;20042;-89
2022/11/04 11:05:18;;;;;;;15.23;6.80;;;;;;;11.27;95.23;100555.44;5020873;28;20516;-89
2022/11/04 11:07:49;;;;;;;13.37;6.80;;;;;;;11.30;95.39;100557.69;5020022;28;20045;-90
2022/11/04 11:10:28;;;;;;;13.30;7.27;;;;;;;11.36;96.04;100558.66;5022219;28;20040;-89
2022/11/04 11:13:01;;;;;;;18.13;7.50;;;;;;;11.48;99.11;100559.59;5015263;28;20040;-93
2022/11/04 11:15:36;;;;;;;13.17;7.10;;;;;;;11.43;96.35;100564.84;5034751;28;20041;-91
2022/11/04 11:18:05;;;;;;;16.97;7.83;;;;;;;11.54;99.31;100563.28;5025775;28;20033;-90
2022/11/04 11:20:32;;;;;;;18.70;7.43;;;;;;;11.40;96.98;100572.63;5023752;28;20029;-90
2022/11/04 11:23:00;;;;;;;14.03;6.60;;;;;;;11.31;95.84;100575.63;5014660;28;20721;-90
2022/11/04 11:25:31;;;;;;;14.40;7.00;;;;;;;11.40;97.15;100573.44;5022123;28;20118;-91
2022/11/04 11:27:59;;;;;;;16.37;7.47;;;;;;;11.38;95.35;100572.84;5024661;28;20041;-91
2022/11/04 11:30:45;;;;;;;17.40;8.10;;;;;;;11.42;97.17;100575.94;5028498;28;20041;-92
2022/11/04 11:33:22;;;;;;;16.73;8.67;;;;;;;11.44;98.61;100574.66;5023286;28;20156;-91
2022/11/04 11:35:53;;;;;;;16.57;8.20;;;;;;;11.43;99.10;100574.88;5024496;28;20040;-91
2022/11/04 11:38:22;;;;;;;14.50;8.50;;;;;;;11.53;96.69;100561.59;5005567;28;20048;-89
2022/11/04 11:40:51;;;;;;;15.77;7.83;;;;;;;11.71;94.55;100559.97;5038413;28;20042;-90
2022/11/04 11:43:25;;;;;;;15.77;7.77;;;;;;;11.78;94.79;100553.41;5020496;28;20448;-91
2022/11/04 11:45:51;;;;;;;13.30;7.05;;;;;;;11.70;93.44;100561.84;5021384;28;20370;-89
2022/11/04 11:48:41;;;;;;;17.63;8.73;;;;;;;11.70;93.49;100561.03;5038437;28;20067;-87
2022/11/04 11:51:11;;;;;;;13.07;7.43;;;;;;;11.74;92.23;100576.63;5020745;28;20543;-90
2022/11/04 11:53:39;;;;;;;14.57;7.73;;;;;;;11.75;91.21;100586.44;5003865;28;20208;-90
2022/11/04 11:56:24;;;;;;;14.20;8.20;;;;;;;11.87;93.21;100583.81;5018503;28;21380;-91
2022/11/04 11:59:27;;;;;;;15.07;7.70;;;;;;;11.90;91.11;100580.63;5023537;28;20029;-88
2022/11/04 12:01:55;;;;;;;16.40;7.57;;;;;;;11.79;90.40;100584.09;5022369;28;20051;-89
2022/11/04 12:04:21;;;;;;;14.53;7.80;;;;;;;12.14;91.73;100583.50;5022998;28;20069;-92
2022/11/04 12:06:52;;;;;;;13.57;8.40;;;;;;;12.13;93.34;100589.97;5025716;28;20507;-91